createdAt,value
2018-02-18T00:01:23.587Z,4.40
2018-02-18T00:03:49.589Z,4.40
2018-02-18T00:06:15.587Z,4.40
2018-02-18T00:08:41.590Z,4.40
2018-02-18T00:11:07.572Z,4.40
2018-02-18T00:13:33.576Z,4.30
2018-02-18T00:16:00.318Z,4.30
2018-02-18T00:18:27.066Z,4.30
2018-02-18T00:20:53.783Z,4.30
2018-02-18T00:23:20.643Z,4.20
2018-02-18T00:25:46.647Z,4.20
2018-02-18T00:28:12.646Z,4.20
2018-02-18T00:30:38.634Z,4.20
2018-02-18T00:33:04.642Z,4.20
2018-02-18T00:35:31.345Z,4.20
2018-02-18T00:37:57.327Z,4.20
2018-02-18T00:40:23.318Z,4.20
2018-02-18T00:42:49.543Z,4.10
2018-02-18T00:45:16.292Z,4.20
2018-02-18T00:47:42.259Z,4.20
2018-02-18T00:50:08.270Z,4.10
2018-02-18T00:52:34.255Z,4.10
2018-02-18T00:55:00.283Z,4.10
2018-02-18T00:57:27.028Z,4.20
2018-02-18T00:59:53.762Z,4.10
2018-02-18T01:02:20.499Z,4.10
2018-02-18T01:04:47.237Z,4.00
2018-02-18T01:07:13.958Z,3.90
2018-02-18T01:09:39.951Z,3.90
2018-02-18T01:12:05.983Z,4.00
2018-02-18T01:14:31.974Z,4.00
2018-02-18T01:16:57.954Z,3.90
2018-02-18T01:19:23.947Z,3.90
2018-02-18T01:21:49.931Z,3.90
2018-02-18T01:24:15.922Z,3.90
2018-02-18T01:26:41.898Z,3.90
2018-02-18T01:29:07.891Z,3.90
2018-02-18T01:31:34.615Z,3.90
2018-02-18T01:34:01.351Z,3.90
2018-02-18T01:36:27.340Z,3.90
2018-02-18T01:38:53.318Z,3.90
2018-02-18T01:41:20.054Z,3.90
2018-02-18T01:43:46.782Z,3.80
2018-02-18T01:46:12.814Z,3.80
2018-02-18T01:48:39.529Z,3.70
2018-02-18T01:51:05.543Z,3.70
2018-02-18T01:53:31.518Z,3.70
2018-02-18T01:55:58.238Z,3.50
2018-02-18T01:58:24.222Z,3.50
2018-02-18T02:00:50.214Z,3.50
2018-02-18T02:03:16.910Z,3.40
2018-02-18T02:05:42.948Z,3.40
2018-02-18T02:08:08.903Z,3.30
2018-02-18T02:10:34.911Z,3.30
2018-02-18T02:13:01.617Z,3.10
2018-02-18T02:15:29.090Z,3.10
2018-02-18T02:17:55.815Z,3.10
2018-02-18T02:20:21.789Z,3.10
2018-02-18T02:22:47.779Z,3.00
2018-02-18T02:25:13.770Z,3.00
2018-02-18T02:27:39.751Z,2.90
2018-02-18T02:30:05.731Z,2.80
2018-02-18T02:32:31.799Z,2.80
2018-02-18T02:34:57.778Z,2.80
2018-02-18T02:37:24.547Z,2.70
2018-02-18T02:39:51.264Z,2.70
2018-02-18T02:42:17.270Z,2.60
2018-02-18T02:44:43.246Z,2.70
2018-02-18T02:47:09.345Z,2.70
2018-02-18T02:49:36.079Z,2.60
2018-02-18T02:52:02.836Z,2.50
2018-02-18T02:54:28.819Z,2.50
2018-02-18T02:56:54.835Z,2.50
2018-02-18T02:59:20.831Z,2.50
2018-02-18T03:01:46.878Z,2.40
2018-02-18T03:04:12.859Z,2.30
2018-02-18T03:06:38.863Z,2.40
2018-02-18T03:09:04.853Z,2.30
2018-02-18T03:11:31.602Z,2.30
2018-02-18T03:13:57.595Z,2.20
2018-02-18T03:16:23.579Z,2.30
2018-02-18T03:18:49.559Z,2.20
2018-02-18T03:21:15.543Z,2.30
2018-02-18T03:23:41.536Z,2.20
2018-02-18T03:26:07.519Z,2.20
2018-02-18T03:28:33.522Z,2.20
2018-02-18T03:30:59.499Z,2.20
2018-02-18T03:33:25.495Z,2.20
2018-02-18T03:35:51.475Z,2.20
2018-02-18T03:38:17.479Z,2.20
2018-02-18T03:40:44.213Z,2.10
2018-02-18T03:43:10.942Z,2.10
2018-02-18T03:45:36.923Z,2.10
2018-02-18T03:48:02.915Z,2.10
2018-02-18T03:50:29.634Z,2.20
2018-02-18T03:52:55.627Z,2.20
2018-02-18T03:55:21.610Z,2.20
2018-02-18T03:57:47.621Z,2.20
2018-02-18T04:00:14.355Z,2.20
2018-02-18T04:02:41.075Z,2.10
2018-02-18T04:05:07.063Z,2.10
2018-02-18T04:07:33.045Z,2.10
2018-02-18T04:09:59.779Z,2.10
2018-02-18T04:12:27.259Z,2.10
2018-02-18T04:14:53.247Z,2.10
2018-02-18T04:17:19.232Z,2.10
2018-02-18T04:19:45.222Z,2.10
2018-02-18T04:22:11.962Z,2.10
2018-02-18T04:24:38.695Z,2.10
2018-02-18T04:27:04.697Z,2.00
2018-02-18T04:29:30.672Z,2.00
2018-02-18T04:31:56.660Z,2.00
2018-02-18T04:34:23.378Z,2.00
2018-02-18T04:36:49.354Z,2.00
2018-02-18T04:39:15.344Z,2.00
2018-02-18T04:41:42.067Z,2.00
2018-02-18T04:44:08.078Z,2.00
2018-02-18T04:46:34.055Z,2.00
2018-02-18T04:49:00.059Z,2.00
2018-02-18T04:51:26.159Z,2.10
2018-02-18T04:53:52.319Z,2.10
2018-02-18T04:56:18.317Z,2.10
2018-02-18T04:58:44.307Z,2.00
2018-02-18T05:01:10.294Z,2.00
2018-02-18T05:03:36.274Z,2.00
2018-02-18T05:06:02.290Z,2.00
2018-02-18T05:08:28.267Z,2.00
2018-02-18T05:10:54.259Z,2.00
2018-02-18T05:13:20.983Z,1.90
2018-02-18T05:15:46.979Z,1.90
2018-02-18T05:18:12.950Z,2.00
2018-02-18T05:20:39.702Z,2.00
2018-02-18T05:23:05.745Z,2.00
2018-02-18T05:25:31.753Z,2.00
2018-02-18T05:27:57.731Z,2.00
2018-02-18T05:30:23.715Z,2.00
2018-02-18T05:32:49.724Z,1.90
2018-02-18T05:35:16.427Z,2.00
2018-02-18T05:37:42.429Z,1.90
2018-02-18T05:40:08.392Z,2.00
2018-02-18T05:42:35.127Z,2.00
2018-02-18T05:45:01.118Z,2.00
2018-02-18T05:47:27.139Z,2.00
2018-02-18T05:49:53.102Z,1.90
2018-02-18T05:52:19.070Z,2.00
2018-02-18T05:54:45.058Z,2.00
2018-02-18T05:57:11.062Z,2.00
2018-02-18T05:59:37.786Z,2.00
2018-02-18T06:02:03.795Z,2.00
2018-02-18T06:04:29.770Z,2.00
2018-02-18T06:06:56.479Z,2.00
2018-02-18T06:09:22.507Z,1.90
2018-02-18T06:11:49.237Z,2.00
2018-02-18T06:14:15.258Z,1.90
2018-02-18T06:16:41.235Z,2.00
2018-02-18T06:19:07.262Z,2.00
2018-02-18T06:21:33.234Z,2.00
2018-02-18T06:23:59.231Z,2.10
2018-02-18T06:26:25.222Z,2.10
2018-02-18T06:28:51.215Z,2.10
2018-02-18T06:31:17.951Z,2.10
2018-02-18T06:33:44.703Z,2.20
2018-02-18T06:36:11.417Z,2.20
2018-02-18T06:38:37.418Z,2.20
2018-02-18T06:41:04.185Z,2.20
2018-02-18T06:43:30.179Z,2.20
2018-02-18T06:45:56.150Z,2.20
2018-02-18T06:48:22.882Z,2.20
2018-02-18T06:50:48.866Z,2.20
2018-02-18T06:53:14.863Z,2.20
2018-02-18T06:55:40.843Z,2.30
2018-02-18T06:58:07.579Z,2.30
2018-02-18T07:00:33.551Z,2.30
2018-02-18T07:02:59.523Z,2.30
2018-02-18T07:05:25.497Z,2.30
2018-02-18T07:07:51.484Z,2.30
2018-02-18T07:10:18.224Z,2.40
2018-02-18T07:12:44.946Z,2.30
2018-02-18T07:15:10.943Z,2.40
2018-02-18T07:17:36.949Z,2.40
2018-02-18T07:20:02.975Z,2.40
2018-02-18T07:22:28.966Z,2.40
2018-02-18T07:24:55.702Z,2.50
2018-02-18T07:27:22.419Z,2.50
2018-02-18T07:29:48.568Z,2.50
2018-02-18T07:32:14.631Z,2.60
2018-02-18T07:34:40.638Z,2.60
2018-02-18T07:37:06.639Z,2.60
2018-02-18T07:39:33.358Z,2.60
2018-02-18T07:41:59.356Z,2.60
2018-02-18T07:44:25.338Z,2.70
2018-02-18T07:46:51.338Z,2.70
2018-02-18T07:49:17.351Z,2.70
2018-02-18T07:51:44.104Z,2.80
2018-02-18T07:54:10.834Z,2.90
2018-02-18T07:56:37.599Z,2.90
2018-02-18T07:59:04.338Z,3.00
2018-02-18T08:01:31.072Z,3.00
2018-02-18T08:03:57.831Z,3.00
2018-02-18T08:06:23.994Z,3.00
2018-02-18T08:08:49.972Z,3.00
2018-02-18T08:11:16.683Z,3.10
2018-02-18T08:13:42.667Z,3.10
2018-02-18T08:16:08.650Z,3.10
2018-02-18T08:18:35.366Z,3.10
2018-02-18T08:21:01.339Z,3.10
2018-02-18T08:23:27.315Z,3.20
2018-02-18T08:25:53.323Z,3.30
2018-02-18T08:28:19.295Z,3.40
2018-02-18T08:30:45.307Z,3.40
2018-02-18T08:33:12.014Z,3.50
2018-02-18T08:35:37.991Z,3.50
2018-02-18T08:38:03.982Z,3.60
2018-02-18T08:40:30.752Z,3.70
2018-02-18T08:42:56.771Z,3.70
2018-02-18T08:45:22.746Z,3.80
2018-02-18T08:47:48.744Z,3.70
2018-02-18T08:50:14.723Z,3.70
2018-02-18T08:52:40.753Z,3.70
2018-02-18T08:55:06.751Z,3.70
2018-02-18T08:57:32.755Z,3.70
2018-02-18T08:59:59.066Z,3.60
2018-02-18T09:02:25.155Z,3.70
2018-02-18T09:04:51.883Z,3.60
2018-02-18T09:07:18.640Z,3.70
2018-02-18T09:09:45.779Z,3.70
2018-02-18T09:12:12.516Z,3.60
2018-02-18T09:14:39.239Z,3.70
2018-02-18T09:17:05.219Z,3.70
2018-02-18T09:19:31.190Z,3.70
2018-02-18T09:21:57.182Z,3.70
2018-02-18T09:24:23.194Z,3.70
2018-02-18T09:26:49.155Z,3.70
2018-02-18T09:29:15.138Z,3.80
2018-02-18T09:31:41.298Z,3.90
2018-02-18T09:34:08.065Z,3.90
2018-02-18T09:36:34.762Z,3.90
2018-02-18T09:39:00.755Z,3.90
2018-02-18T09:41:26.727Z,4.00
2018-02-18T09:43:52.711Z,4.00
2018-02-18T09:46:18.690Z,4.10
2018-02-18T09:48:45.424Z,4.20
2018-02-18T09:51:12.139Z,4.30
2018-02-18T09:53:38.135Z,4.20
2018-02-18T09:56:04.103Z,4.20
2018-02-18T09:58:30.098Z,4.20
2018-02-18T10:00:56.070Z,4.30
2018-02-18T10:03:22.818Z,4.50
2018-02-18T10:05:49.513Z,4.60
2018-02-18T10:08:15.479Z,4.60
2018-02-18T10:10:41.475Z,4.70
2018-02-18T10:13:07.469Z,4.70
2018-02-18T10:15:33.471Z,4.70
2018-02-18T10:17:59.459Z,4.70
2018-02-18T10:20:26.200Z,4.80
2018-02-18T10:22:52.904Z,4.80
2018-02-18T10:25:18.943Z,4.80
2018-02-18T10:27:44.884Z,4.80
2018-02-18T10:30:11.625Z,4.90
2018-02-18T10:32:37.726Z,4.90
2018-02-18T10:35:04.487Z,4.90
2018-02-18T10:37:30.445Z,4.90
2018-02-18T10:39:56.436Z,4.90
2018-02-18T10:42:22.407Z,4.90
2018-02-18T10:44:48.391Z,5.00
2018-02-18T10:47:14.451Z,5.00
2018-02-18T10:49:40.481Z,5.00
2018-02-18T10:52:06.598Z,5.00
2018-02-18T10:54:33.400Z,5.10
2018-02-18T10:57:00.143Z,5.10
2018-02-18T10:59:26.876Z,5.10
2018-02-18T11:01:53.602Z,5.20
2018-02-18T11:04:19.755Z,5.10
2018-02-18T11:06:46.467Z,5.20
2018-02-18T11:09:12.580Z,5.20
2018-02-18T11:11:38.672Z,5.40
2018-02-18T11:14:04.679Z,5.40
2018-02-18T11:16:30.688Z,5.50
2018-02-18T11:18:57.395Z,5.60
2018-02-18T11:21:23.402Z,5.60
2018-02-18T11:23:49.371Z,5.70
2018-02-18T11:26:16.146Z,5.90
2018-02-18T11:28:42.110Z,5.80
2018-02-18T11:31:08.171Z,5.90
2018-02-18T11:33:34.862Z,5.80
2018-02-18T11:36:00.871Z,5.70
2018-02-18T11:38:26.846Z,5.70
2018-02-18T11:40:53.586Z,5.50
2018-02-18T11:43:19.574Z,5.50
2018-02-18T11:45:45.555Z,5.50
2018-02-18T11:48:11.519Z,5.50
2018-02-18T11:50:37.510Z,5.50
2018-02-18T11:53:03.459Z,5.50
2018-02-18T11:55:29.466Z,5.50
2018-02-18T11:57:55.431Z,5.60
2018-02-18T12:00:21.406Z,5.70
2018-02-18T12:02:47.343Z,5.70
2018-02-18T12:05:13.291Z,5.70
2018-02-18T12:07:39.228Z,5.80
2018-02-18T12:10:05.149Z,5.90
2018-02-18T12:12:31.936Z,5.90
2018-02-18T12:14:57.919Z,5.90
2018-02-18T12:17:24.658Z,6.00
2018-02-18T12:19:51.431Z,6.20
2018-02-18T12:22:17.418Z,6.20
2018-02-18T12:24:44.113Z,6.30
2018-02-18T12:27:10.080Z,6.30
2018-02-18T12:29:36.043Z,6.30
2018-02-18T12:32:02.027Z,6.20
2018-02-18T12:34:27.983Z,6.30
2018-02-18T12:36:53.974Z,6.40
2018-02-18T12:39:20.695Z,6.50
2018-02-18T12:41:46.687Z,6.50
2018-02-18T12:44:12.663Z,6.60
2018-02-18T12:46:38.643Z,6.60
2018-02-18T12:49:04.629Z,6.60
2018-02-18T12:51:30.614Z,6.60
2018-02-18T12:53:56.628Z,6.70
2018-02-18T12:56:22.603Z,6.80
2018-02-18T12:58:48.695Z,6.90
2018-02-18T13:01:14.691Z,7.10
2018-02-18T13:03:40.715Z,7.20
2018-02-18T13:06:06.686Z,7.10
2018-02-18T13:08:32.726Z,7.00
2018-02-18T13:10:58.683Z,7.00
2018-02-18T13:13:24.651Z,7.20
2018-02-18T13:15:50.735Z,7.40
2018-02-18T13:18:16.715Z,7.80
2018-02-18T13:20:42.687Z,7.60
2018-02-18T13:23:08.688Z,7.60
2018-02-18T13:25:34.688Z,8.10
2018-02-18T13:28:00.675Z,8.30
2018-02-18T13:30:27.391Z,8.10
2018-02-18T13:32:53.376Z,8.10
2018-02-18T13:35:19.335Z,7.90
2018-02-18T13:37:45.331Z,7.70
2018-02-18T13:40:12.004Z,8.00
2018-02-18T13:42:38.059Z,7.90
2018-02-18T13:45:04.769Z,7.80
2018-02-18T13:47:30.747Z,7.70
2018-02-18T13:49:56.696Z,7.80
2018-02-18T13:52:22.654Z,7.80
2018-02-18T13:54:49.390Z,8.60
2018-02-18T13:57:16.120Z,8.70
2018-02-18T13:59:42.107Z,8.70
2018-02-18T14:02:08.131Z,8.30
2018-02-18T14:04:34.167Z,7.80
2018-02-18T14:07:00.143Z,7.70
2018-02-18T14:09:26.131Z,7.40
2018-02-18T14:11:52.103Z,7.10
2018-02-18T14:14:18.091Z,6.90
2018-02-18T14:16:44.834Z,6.90
2018-02-18T14:19:10.871Z,6.90
2018-02-18T14:21:36.855Z,6.80
2018-02-18T14:24:02.831Z,6.80
2018-02-18T14:26:28.831Z,6.90
2018-02-18T14:28:55.551Z,6.80
2018-02-18T14:31:21.522Z,6.80
2018-02-18T14:33:47.658Z,6.80
2018-02-18T14:36:13.775Z,6.80
2018-02-18T14:38:39.782Z,6.60
2018-02-18T14:41:06.503Z,6.80
2018-02-18T14:43:38.708Z,6.80
2018-02-18T14:46:11.147Z,6.90
2018-02-18T14:48:43.630Z,6.90
2018-02-18T14:51:15.713Z,6.90
2018-02-18T14:53:48.537Z,6.90
2018-02-18T14:56:17.599Z,6.80
2018-02-18T14:58:43.577Z,6.90
2018-02-18T15:01:09.569Z,6.90
2018-02-18T15:03:35.547Z,7.00
2018-02-18T15:06:02.275Z,6.80
2018-02-18T15:08:28.999Z,7.10
2018-02-18T15:10:54.990Z,7.10
2018-02-18T15:13:20.967Z,7.30
2018-02-18T15:15:47.014Z,7.20
2018-02-18T15:18:12.983Z,7.20
2018-02-18T15:20:38.967Z,7.10
2018-02-18T15:23:04.956Z,7.10
2018-02-18T15:25:31.699Z,7.00
2018-02-18T15:27:58.439Z,7.00
2018-02-18T15:30:25.177Z,6.80
2018-02-18T15:32:51.909Z,6.70
2018-02-18T15:35:17.878Z,6.70
2018-02-18T15:37:43.883Z,6.70
2018-02-18T15:40:09.963Z,6.70
2018-02-18T15:42:37.474Z,6.60
2018-02-18T15:45:03.509Z,6.60
2018-02-18T15:47:29.511Z,6.50
2018-02-18T15:49:55.497Z,6.40
2018-02-18T15:52:21.502Z,6.30
2018-02-18T15:54:47.467Z,6.20
2018-02-18T15:57:14.210Z,6.10
2018-02-18T15:59:40.922Z,6.00
2018-02-18T16:02:06.933Z,6.00
2018-02-18T16:04:32.898Z,6.00
2018-02-18T16:06:59.633Z,6.00
2018-02-18T16:09:26.363Z,5.90
2018-02-18T16:11:53.095Z,5.80
2018-02-18T16:14:19.067Z,5.70
2018-02-18T16:16:45.071Z,5.70
2018-02-18T16:19:11.049Z,5.70
2018-02-18T16:21:37.031Z,5.60
2018-02-18T16:24:03.037Z,5.50
2018-02-18T16:26:29.024Z,5.50
2018-02-18T16:28:55.023Z,5.40
2018-02-18T16:31:21.054Z,5.40
2018-02-18T16:33:47.079Z,5.30
2018-02-18T16:36:13.333Z,5.20
2018-02-18T16:38:40.187Z,5.00
2018-02-18T16:41:06.907Z,4.90
2018-02-18T16:43:34.391Z,4.90
2018-02-18T16:46:00.371Z,4.90
2018-02-18T16:48:26.358Z,4.90
2018-02-18T16:50:52.335Z,4.80
2018-02-18T16:53:18.325Z,4.70
2018-02-18T16:55:44.303Z,4.60
2018-02-18T16:58:10.282Z,4.60
2018-02-18T17:00:36.304Z,4.60
2018-02-18T17:03:03.099Z,4.40
2018-02-18T17:05:29.811Z,4.40
2018-02-18T17:07:55.830Z,4.30
2018-02-18T17:10:21.788Z,4.30
2018-02-18T17:12:47.895Z,4.20
2018-02-18T17:17:50.492Z,4.10
2018-02-18T17:20:16.466Z,4.10
2018-02-18T17:22:42.415Z,4.00
2018-02-18T17:25:08.379Z,4.00
2018-02-18T17:27:35.207Z,3.90
2018-02-18T17:30:01.943Z,3.90
2018-02-18T17:32:27.896Z,3.90
2018-02-18T17:34:53.883Z,3.90
2018-02-18T17:37:20.586Z,3.80
2018-02-18T17:39:46.595Z,3.80
2018-02-18T17:42:12.537Z,3.80
2018-02-18T17:44:38.502Z,3.70
2018-02-18T17:47:05.210Z,3.60
2018-02-18T17:49:31.189Z,3.60
2018-02-18T17:51:57.154Z,3.60
2018-02-18T17:54:23.135Z,3.50
2018-02-18T17:56:49.135Z,3.50
2018-02-18T17:59:15.922Z,3.50
2018-02-18T18:01:41.911Z,3.40
2018-02-18T18:04:07.911Z,3.50
2018-02-18T18:06:33.903Z,3.40
2018-02-18T18:09:00.646Z,3.40
2018-02-18T18:11:26.618Z,3.40
2018-02-18T18:13:52.581Z,3.40
2018-02-18T18:16:18.558Z,3.40
2018-02-18T18:18:44.580Z,3.30
2018-02-18T18:21:10.601Z,3.30
2018-02-18T18:23:37.327Z,3.20
2018-02-18T18:26:03.294Z,3.20
2018-02-18T18:28:29.283Z,3.20
2018-02-18T18:30:56.135Z,3.20
2018-02-18T18:33:22.143Z,3.10
2018-02-18T18:35:48.871Z,3.10
2018-02-18T18:38:15.066Z,3.10
2018-02-18T18:40:41.147Z,3.10
2018-02-18T18:43:07.169Z,3.10
2018-02-18T18:45:33.866Z,3.10
2018-02-18T18:47:59.840Z,3.10
2018-02-18T18:50:25.827Z,3.10
2018-02-18T18:52:52.776Z,3.10
2018-02-18T18:55:18.755Z,3.10
2018-02-18T18:57:44.839Z,3.20
2018-02-18T19:00:11.559Z,3.20
2018-02-18T19:02:37.611Z,3.20
2018-02-18T19:05:03.577Z,3.20
2018-02-18T19:07:29.543Z,3.30
2018-02-18T19:09:55.507Z,3.30
2018-02-18T19:20:53.203Z,3.30
2018-02-18T19:23:19.199Z,3.30
2018-02-18T19:25:45.187Z,3.30
2018-02-18T19:28:11.161Z,3.30
2018-02-18T19:30:37.867Z,3.30
2018-02-18T19:33:03.951Z,3.30
2018-02-18T19:35:29.947Z,3.30
2018-02-18T19:37:56.666Z,3.30
2018-02-18T19:40:22.654Z,3.30
2018-02-18T19:42:48.651Z,3.30
2018-02-18T19:45:14.636Z,3.30
2018-02-18T19:47:40.647Z,3.30
2018-02-18T19:50:06.631Z,3.40
2018-02-18T19:52:32.616Z,3.40
2018-02-18T19:54:58.591Z,3.30
2018-02-18T19:57:24.602Z,3.30
2018-02-18T19:59:51.299Z,3.30
2018-02-18T20:02:17.295Z,3.30
2018-02-18T20:04:43.287Z,3.30
2018-02-18T20:07:09.272Z,3.30
2018-02-18T20:09:35.324Z,3.30
2018-02-18T20:12:01.307Z,3.30
2018-02-18T20:14:27.329Z,3.40
2018-02-18T20:16:53.307Z,3.40
2018-02-18T20:19:19.329Z,3.40
2018-02-18T20:21:45.347Z,3.40
2018-02-18T20:24:11.340Z,3.40
2018-02-18T20:26:37.299Z,3.40
2018-02-18T20:29:03.309Z,3.30
2018-02-18T20:31:30.007Z,3.30
2018-02-18T20:33:56.023Z,3.30
2018-02-18T20:36:22.007Z,3.30
2018-02-18T20:38:48.056Z,3.20
2018-02-18T20:41:14.042Z,3.20
2018-02-18T20:43:40.035Z,3.20
2018-02-18T20:46:06.007Z,3.20
2018-02-18T20:48:32.011Z,3.20
2018-02-18T20:50:58.059Z,3.20
2018-02-18T20:53:24.047Z,3.20
2018-02-18T20:55:50.775Z,3.20
2018-02-18T20:58:16.767Z,3.20
2018-02-18T21:00:42.771Z,3.20
2018-02-18T21:03:08.763Z,3.20
2018-02-18T21:05:35.508Z,3.20
2018-02-18T21:08:01.508Z,3.10
2018-02-18T21:10:28.243Z,3.20
2018-02-18T21:12:54.210Z,3.20
2018-02-18T21:15:20.335Z,3.10
2018-02-18T21:17:46.315Z,3.10
2018-02-18T21:20:12.340Z,3.10
2018-02-18T21:22:39.111Z,3.10
2018-02-18T21:25:05.157Z,3.10
2018-02-18T21:27:31.167Z,3.10
2018-02-18T21:29:57.206Z,3.10
2018-02-18T21:32:23.196Z,3.00
2018-02-18T21:34:49.183Z,3.10
2018-02-18T21:37:15.177Z,3.10
2018-02-18T21:39:41.165Z,3.00
2018-02-18T21:42:07.184Z,3.10
2018-02-18T21:44:33.906Z,3.10
2018-02-18T21:46:59.903Z,3.10
2018-02-18T21:49:25.890Z,3.10
2018-02-18T21:51:51.896Z,3.00
2018-02-18T21:54:18.622Z,3.00
2018-02-18T21:56:45.428Z,3.00
2018-02-18T21:59:11.412Z,3.00
2018-02-18T22:01:37.455Z,3.00
2018-02-18T22:04:03.428Z,3.00
2018-02-18T22:06:30.159Z,3.00
2018-02-18T22:08:56.251Z,3.00
2018-02-18T22:11:22.242Z,3.00
2018-02-18T22:13:48.220Z,3.00
2018-02-18T22:16:14.274Z,3.00
2018-02-18T22:18:41.020Z,3.00
2018-02-18T22:21:07.747Z,3.00
2018-02-18T22:23:33.718Z,3.00
2018-02-18T22:25:59.703Z,3.00
2018-02-18T22:28:26.421Z,3.00
2018-02-18T22:30:52.448Z,3.00
2018-02-18T22:33:19.191Z,2.90
2018-02-18T22:35:45.191Z,2.90
2018-02-18T22:38:11.191Z,2.90
2018-02-18T22:40:37.164Z,2.90
2018-02-18T22:43:03.158Z,3.00
2018-02-18T22:45:29.127Z,2.90
2018-02-18T22:47:55.095Z,2.80
2018-02-18T22:50:21.070Z,2.80
2018-02-18T22:52:49.114Z,2.90
2018-02-18T22:56:02.399Z,2.80
2018-02-18T22:58:28.411Z,2.80
2018-02-18T23:00:54.398Z,2.80
2018-02-18T23:03:20.400Z,2.80
2018-02-18T23:05:52.302Z,2.80
2018-02-18T23:08:19.027Z,2.70
2018-02-18T23:10:45.016Z,2.70
2018-02-18T23:13:12.838Z,2.70
2018-02-18T23:15:48.816Z,2.70
2018-02-18T23:18:14.794Z,2.70
2018-02-18T23:20:46.942Z,2.70
2018-02-18T23:23:12.915Z,2.70
2018-02-18T23:25:38.890Z,2.70
2018-02-18T23:28:04.887Z,2.70
2018-02-18T23:30:30.875Z,2.60
2018-02-18T23:32:56.827Z,2.60
2018-02-18T23:35:22.815Z,2.60
2018-02-18T23:37:49.539Z,2.60
2018-02-18T23:40:15.531Z,2.60
2018-02-18T23:42:41.513Z,2.60
2018-02-18T23:45:07.533Z,2.60
2018-02-18T23:47:34.327Z,2.60
2018-02-18T23:50:00.329Z,2.60
2018-02-18T23:52:26.311Z,2.60
2018-02-18T23:54:53.044Z,2.60
2018-02-18T23:57:19.040Z,2.60
2018-02-18T23:59:45.035Z,2.60
